Time;durP1;ratioP1;P1;durP2;ratioP2;P2;SDS_P1;SDS_P2;PMS_P1;PMS_P2;Temp;Humidity;BMP_temperature;BMP_pressure;BME280_temperature;BME280_humidity;BME280_pressure;Samples;Min_cycle;Max_cycle;Signal;HPM_P1;HPM_P2
2022/04/18 00:01:49;;;;;;;2.28;1.90;;;;;;;-140.72;100.00;52522.75;5008571;28;20026;-71
2022/04/18 00:04:15;;;;;;;1.30;0.85;;;;;;;-140.72;100.00;52490.28;5009220;28;20053;-71
2022/04/18 00:06:41;;;;;;;1.10;0.80;;;;;;;-140.72;100.00;52565.38;5008964;28;20025;-71
2022/04/18 00:09:06;;;;;;;2.03;1.30;;;;;;;-140.72;100.00;52545.06;5008661;28;20048;-69
2022/04/18 00:11:32;;;;;;;2.63;1.52;;;;;;;-140.72;100.00;52536.97;5008671;28;20352;-70
2022/04/18 00:13:58;;;;;;;2.35;1.75;;;;;;;-140.72;100.00;52528.84;5008827;28;20074;-70
2022/04/18 00:16:24;;;;;;;3.53;1.58;;;;;;;-140.72;100.00;52498.41;5008654;28;20431;-71
2022/04/18 00:18:50;;;;;;;1.50;1.13;;;;;;;-140.72;100.00;52524.78;5008268;28;20124;-71
2022/04/18 00:21:15;;;;;;;1.20;1.08;;;;;;;-140.72;100.00;52571.47;5009515;28;20117;-70
2022/04/18 00:23:42;;;;;;;2.42;1.75;;;;;;;-140.72;100.00;52498.41;5004126;28;20022;-70
2022/04/18 00:26:08;;;;;;;4.55;1.42;;;;;;;-140.72;100.00;52561.31;5000138;28;20042;-70
2022/04/18 00:28:34;;;;;;;1.65;1.17;;;;;;;-140.72;100.00;52508.56;4988985;28;20400;-71
2022/04/18 00:30:59;;;;;;;2.30;1.33;;;;;;;-140.72;100.00;52528.84;5007987;28;20360;-71
2022/04/18 00:33:25;;;;;;;1.50;1.20;;;;;;;-140.72;100.00;52541.03;5028132;28;20514;-70
2022/04/18 00:35:51;;;;;;;1.30;1.02;;;;;;;-140.72;100.00;52532.91;5027916;28;20061;-70
2022/04/18 00:38:17;;;;;;;3.63;1.20;;;;;;;-140.72;100.00;52543.03;5025609;28;20506;-70
2022/04/18 00:40:42;;;;;;;1.98;1.50;;;;;;;-140.72;100.00;52528.84;5007597;28;20061;-70
2022/04/18 00:43:08;;;;;;;2.92;1.95;;;;;;;-140.72;100.00;52520.72;5008008;28;20033;-70
2022/04/18 00:45:33;;;;;;;2.65;1.52;;;;;;;-140.72;100.00;52545.06;5008184;28;20034;-70
2022/04/18 00:47:59;;;;;;;3.78;2.13;;;;;;;-140.72;100.00;52512.59;5008471;28;20365;-70
2022/04/18 00:50:26;;;;;;;2.63;1.38;;;;;;;-140.72;100.00;52541.03;5007937;28;20037;-70
2022/04/18 00:52:54;;;;;;;2.33;1.10;;;;;;;-140.72;100.00;52543.03;4988684;28;20128;-70
2022/04/18 00:55:21;;;;;;;3.05;1.58;;;;;;;-140.72;100.00;52549.13;4988827;28;20034;-70
2022/04/18 00:57:48;;;;;;;2.67;1.50;;;;;;;-140.72;100.00;52569.44;4988909;28;20038;-70
2022/04/18 01:00:17;;;;;;;2.80;1.60;;;;;;;-140.72;100.00;52514.63;4989227;28;20478;-70
2022/04/18 01:02:42;;;;;;;4.68;1.73;;;;;;;-140.72;100.00;52490.28;4988235;28;20399;-70
2022/04/18 01:05:08;;;;;;;0.70;0.70;;;;;;;-140.72;100.00;52518.69;4988328;28;20034;-70
2022/04/18 01:07:34;;;;;;;2.67;1.58;;;;;;;-140.72;100.00;52528.84;4988741;28;20037;-71
2022/04/18 01:10:01;;;;;;;2.33;2.10;;;;;;;-140.72;100.00;52534.94;4988149;28;20449;-70
2022/04/18 01:12:26;;;;;;;1.10;1.00;;;;;;;-140.72;100.00;52526.81;4988116;28;20038;-71
2022/04/18 01:14:52;;;;;;;2.50;1.13;;;;;;;-140.72;100.00;52492.31;4988143;28;20097;-71
2022/04/18 01:17:17;;;;;;;1.15;0.88;;;;;;;-140.72;100.00;52553.19;4988230;28;20033;-71
2022/04/18 01:19:43;;;;;;;2.60;1.95;;;;;;;-140.72;100.00;52528.84;4988525;28;20057;-70
2022/04/18 01:22:09;;;;;;;1.90;1.33;;;;;;;-140.72;100.00;52522.75;4988086;28;20042;-70
2022/04/18 01:30:05;;;;;;;1.48;1.20;;;;;;;-140.72;100.00;52532.91;4988571;28;20068;-69
2022/04/18 01:32:30;;;;;;;3.58;1.20;;;;;;;-140.72;100.00;52524.78;4988316;28;20034;-71
2022/04/18 01:34:57;;;;;;;1.70;1.58;;;;;;;-140.72;100.00;52530.88;4988176;28;20031;-70
2022/04/18 01:37:23;;;;;;;2.15;1.95;;;;;;;-140.72;100.00;52524.78;4987972;28;20468;-70
2022/04/18 01:39:49;;;;;;;1.25;1.10;;;;;;;-140.72;100.00;52534.94;4987922;28;20041;-70
2022/04/18 01:42:14;;;;;;;1.63;1.20;;;;;;;-140.72;100.00;52545.06;4988565;28;20027;-70
2022/04/18 01:44:40;;;;;;;2.17;1.98;;;;;;;-140.72;100.00;52547.09;4988408;28;20439;-71
2022/04/18 01:47:05;;;;;;;3.13;1.55;;;;;;;-140.72;100.00;52530.88;4988288;28;20111;-70
2022/04/18 01:49:30;;;;;;;3.97;2.03;;;;;;;-140.72;100.00;52545.06;4988192;28;20437;-70
2022/04/18 01:51:56;;;;;;;2.08;1.30;;;;;;;-140.72;100.00;52510.59;4990561;28;20062;-70
2022/04/18 01:54:22;;;;;;;2.25;1.35;;;;;;;-140.72;100.00;52549.13;4991945;28;20026;-71
2022/04/18 01:56:47;;;;;;;2.20;1.35;;;;;;;-140.72;100.00;52545.06;4991920;28;20030;-71
2022/04/18 01:59:13;;;;;;;3.47;1.27;;;;;;;-140.72;100.00;52561.31;5037357;28;20047;-70
2022/04/18 02:01:38;;;;;;;1.40;1.30;;;;;;;-140.72;100.00;52567.41;5094313;28;20024;-71
2022/04/18 02:04:03;;;;;;;1.85;1.52;;;;;;;-140.72;100.00;52565.38;5094480;28;20030;-70
2022/04/18 02:06:29;;;;;;;2.25;0.98;;;;;;;-140.72;100.00;52536.97;5094416;28;20109;-70
2022/04/18 02:08:54;;;;;;;1.55;1.17;;;;;;;-140.72;100.00;52553.19;5094465;28;20020;-70
2022/04/18 02:11:20;;;;;;;1.70;0.98;;;;;;;-140.72;100.00;52524.78;5094249;28;20113;-71
2022/04/18 02:13:46;;;;;;;1.42;1.33;;;;;;;-140.72;100.00;52561.31;5094525;28;20028;-70
2022/04/18 02:16:11;;;;;;;1.20;0.75;;;;;;;-140.72;100.00;52577.53;5094014;28;20082;-70
2022/04/18 02:18:37;;;;;;;0.95;0.80;;;;;;;-140.72;100.00;52573.50;5076081;28;20028;-70
2022/04/18 02:21:03;;;;;;;2.60;0.90;;;;;;;-140.72;100.00;52510.59;5093548;28;20086;-70
2022/04/18 02:23:28;;;;;;;1.75;1.45;;;;;;;-140.72;100.00;52543.03;5093645;28;20500;-70
2022/04/18 02:25:53;;;;;;;1.67;1.00;;;;;;;-140.72;100.00;52571.47;5093833;28;20138;-70
2022/04/18 02:28:19;;;;;;;1.30;1.05;;;;;;;-140.72;100.00;52553.19;5093013;28;20414;-70
2022/04/18 02:30:44;;;;;;;1.95;1.67;;;;;;;-140.72;100.00;52545.06;5042022;28;20030;-71
2022/04/18 02:33:10;;;;;;;1.67;1.15;;;;;;;-140.72;100.00;52557.25;5006395;28;20026;-70
2022/04/18 02:35:35;;;;;;;0.55;0.50;;;;;;;-140.72;100.00;52555.22;5009594;28;20107;-70
2022/04/18 02:38:01;;;;;;;1.60;1.38;;;;;;;-140.72;100.00;52534.94;5010316;28;20036;-71
2022/04/18 02:40:26;;;;;;;1.67;1.58;;;;;;;-140.72;100.00;52541.03;4999049;28;20031;-70
2022/04/18 02:42:51;;;;;;;1.95;1.10;;;;;;;-140.72;100.00;52536.97;4990806;28;20037;-71
2022/04/18 02:45:18;;;;;;;0.90;0.80;;;;;;;-140.72;100.00;52514.63;5005124;28;20483;-70
2022/04/18 02:47:45;;;;;;;1.80;1.05;;;;;;;-140.72;100.00;52575.50;5010048;28;20050;-70
2022/04/18 02:50:10;;;;;;;5.93;1.20;;;;;;;-140.72;100.00;52565.38;5009355;28;20079;-71
2022/04/18 02:52:36;;;;;;;0.88;0.85;;;;;;;-140.72;100.00;52539.00;5004783;28;20038;-70
2022/04/18 02:55:02;;;;;;;2.60;1.08;;;;;;;-140.72;100.00;52532.91;4990526;28;20027;-70
2022/04/18 02:57:27;;;;;;;2.35;0.70;;;;;;;-140.72;100.00;52553.19;4990511;28;20030;-70
2022/04/18 02:59:52;;;;;;;0.68;0.40;;;;;;;-140.72;100.00;52520.72;5010644;28;20450;-70
2022/04/18 03:02:18;;;;;;;1.85;0.73;;;;;;;-140.72;100.00;52528.84;5028969;28;20440;-70
2022/04/18 03:04:43;;;;;;;1.00;0.70;;;;;;;-140.72;100.00;52516.66;5029562;28;20049;-69
2022/04/18 03:07:09;;;;;;;1.00;0.90;;;;;;;-140.72;100.00;52553.19;5029492;28;20067;-70
2022/04/18 03:09:34;;;;;;;0.82;0.75;;;;;;;-140.72;100.00;52494.34;5021729;28;20030;-70
2022/04/18 03:12:02;;;;;;;1.42;0.95;;;;;;;-140.72;100.00;52539.00;4990352;28;20034;-70
2022/04/18 03:14:28;;;;;;;0.75;0.65;;;;;;;-140.72;100.00;52561.31;4990567;28;20026;-71
2022/04/18 03:16:54;;;;;;;1.52;0.60;;;;;;;-140.72;100.00;52526.81;4989986;28;20056;-71
2022/04/18 03:19:19;;;;;;;1.42;0.63;;;;;;;-140.72;100.00;52532.91;4990120;28;20038;-70
2022/04/18 03:21:45;;;;;;;1.00;0.90;;;;;;;-140.72;100.00;52559.28;4990159;28;20042;-71
2022/04/18 03:24:10;;;;;;;1.23;0.65;;;;;;;-140.72;100.00;52559.28;4989914;28;20037;-71
2022/04/18 03:26:36;;;;;;;2.78;0.60;;;;;;;-140.72;100.00;52581.59;4990349;28;20026;-70
2022/04/18 03:29:01;;;;;;;0.45;0.45;;;;;;;-140.72;100.00;52516.66;4990124;28;20061;-70
2022/04/18 03:31:27;;;;;;;0.50;0.50;;;;;;;-140.72;100.00;52534.94;4990245;28;20026;-70
2022/04/18 03:33:52;;;;;;;0.95;0.52;;;;;;;-140.72;100.00;52565.38;4990015;28;20597;-70
2022/04/18 03:41:46;;;;;;;1.38;0.70;;;;;;;-140.72;100.00;52549.13;4990219;28;20046;-69
2022/04/18 03:44:12;;;;;;;0.73;0.63;;;;;;;-140.72;100.00;52530.88;4989482;28;20018;-70
2022/04/18 03:46:37;;;;;;;0.75;0.40;;;;;;;-140.72;100.00;52551.16;4989689;28;20533;-70
2022/04/18 03:49:02;;;;;;;1.48;0.70;;;;;;;-140.72;100.00;52536.97;4989835;28;20034;-70
2022/04/18 03:51:28;;;;;;;0.60;0.60;;;;;;;-140.72;100.00;52553.19;4989536;28;20137;-71
2022/04/18 03:53:53;;;;;;;0.60;0.60;;;;;;;-140.72;100.00;52565.38;4989691;28;20468;-71
2022/04/18 03:56:19;;;;;;;0.50;0.47;;;;;;;-140.72;100.00;52553.19;4989545;28;20368;-70
2022/04/18 03:58:44;;;;;;;0.70;0.65;;;;;;;-140.72;100.00;52541.03;5015331;28;20094;-69
2022/04/18 04:01:09;;;;;;;1.48;0.80;;;;;;;-140.72;100.00;52549.13;5091650;28;20390;-70
2022/04/18 04:03:35;;;;;;;2.60;1.10;;;;;;;-140.72;100.00;52587.69;5091658;28;20040;-70
2022/04/18 04:06:00;;;;;;;0.65;0.57;;;;;;;-140.72;100.00;52545.06;5091711;28;20024;-70
2022/04/18 04:08:28;;;;;;;1.45;1.00;;;;;;;-140.72;100.00;52518.69;5091661;28;20454;-70
2022/04/18 04:10:53;;;;;;;0.73;0.70;;;;;;;-140.72;100.00;52536.97;5091751;28;20028;-70
2022/04/18 04:13:18;;;;;;;1.58;1.23;;;;;;;-140.72;100.00;52561.31;5091521;28;20031;-70
2022/04/18 04:15:44;;;;;;;1.20;0.57;;;;;;;-140.72;100.00;52528.84;5092085;28;20024;-69
2022/04/18 04:18:09;;;;;;;0.68;0.38;;;;;;;-140.72;100.00;52539.00;5091951;28;20107;-71
2022/04/18 04:20:35;;;;;;;2.42;1.08;;;;;;;-140.72;100.00;52545.06;5092013;28;20028;-70
2022/04/18 04:23:00;;;;;;;0.63;0.40;;;;;;;-140.72;100.00;52597.84;5091970;28;20024;-70
2022/04/18 04:25:25;;;;;;;0.82;0.60;;;;;;;-140.72;100.00;52543.03;5091725;28;20529;-70
2022/04/18 04:27:51;;;;;;;0.88;0.50;;;;;;;-140.72;100.00;52585.66;5091726;28;20485;-70
2022/04/18 04:30:16;;;;;;;1.95;0.98;;;;;;;-140.72;100.00;52553.19;5092009;28;20024;-70
2022/04/18 04:32:41;;;;;;;2.85;0.70;;;;;;;-140.72;100.00;52522.75;5091605;28;20028;-71
2022/04/18 04:35:07;;;;;;;1.30;0.60;;;;;;;-140.72;100.00;52541.03;5091249;28;20477;-70
2022/04/18 04:37:32;;;;;;;0.40;0.40;;;;;;;-140.72;100.00;52557.25;5091713;28;20032;-70
2022/04/18 04:39:58;;;;;;;0.47;0.47;;;;;;;-140.72;100.00;52532.91;5091200;28;20074;-70
2022/04/18 04:42:23;;;;;;;0.95;0.70;;;;;;;-140.72;100.00;52518.69;5091170;28;20528;-70
2022/04/18 04:44:48;;;;;;;0.63;0.40;;;;;;;-140.72;100.00;52518.69;5036260;28;20079;-70
2022/04/18 04:47:14;;;;;;;1.33;0.70;;;;;;;-140.72;100.00;52541.03;5008484;28;20045;-71
2022/04/18 04:49:39;;;;;;;1.73;1.23;;;;;;;-140.72;100.00;52555.22;5009091;28;20054;-70
2022/04/18 04:52:06;;;;;;;0.73;0.50;;;;;;;-140.72;100.00;52553.19;5008363;28;20502;-70
2022/04/18 04:54:37;;;;;;;0.85;0.70;;;;;;;-140.72;100.00;52524.78;5008527;28;20030;-70
2022/04/18 04:57:03;;;;;;;1.95;0.50;;;;;;;-140.72;100.00;52520.72;5007888;28;20601;-70
2022/04/18 04:59:28;;;;;;;0.98;0.80;;;;;;;-140.72;100.00;52557.25;5011312;28;20124;-70
2022/04/18 05:01:53;;;;;;;0.90;0.63;;;;;;;-140.72;100.00;52563.34;5028100;28;20073;-71
2022/04/18 05:04:19;;;;;;;1.00;0.55;;;;;;;-140.72;100.00;52573.50;5028363;28;20057;-71
2022/04/18 05:06:44;;;;;;;1.30;0.93;;;;;;;-140.72;100.00;52589.72;5028641;28;20029;-71
2022/04/18 05:09:10;;;;;;;2.72;0.77;;;;;;;-140.72;100.00;52559.28;5028128;28;20026;-70
2022/04/18 05:11:35;;;;;;;1.05;0.88;;;;;;;-140.72;100.00;52605.94;5028174;28;20036;-70
2022/04/18 05:14:00;;;;;;;0.43;0.43;;;;;;;-140.72;100.00;52549.13;5027852;28;20030;-71
2022/04/18 05:16:26;;;;;;;0.98;0.85;;;;;;;-140.72;100.00;52532.91;5027679;28;20033;-70
2022/04/18 05:18:51;;;;;;;0.80;0.60;;;;;;;-140.72;100.00;52528.84;5027725;28;20025;-69
2022/04/18 05:21:17;;;;;;;1.08;0.70;;;;;;;-140.72;100.00;52573.50;5027773;28;20064;-69
2022/04/18 05:23:42;;;;;;;0.50;0.50;;;;;;;-140.72;100.00;52541.03;5028109;28;20029;-69
2022/04/18 05:26:08;;;;;;;1.02;0.75;;;;;;;-140.72;100.00;52528.84;5029134;28;20061;-68
2022/04/18 05:28:33;;;;;;;0.30;0.30;;;;;;;-140.72;100.00;52524.78;5031152;28;20022;-69
2022/04/18 05:30:58;;;;;;;1.02;0.65;;;;;;;-140.72;100.00;52545.06;5031226;28;20439;-70
2022/04/18 05:33:24;;;;;;;0.88;0.45;;;;;;;-140.72;100.00;52541.03;5031014;28;20058;-69
2022/04/18 05:35:50;;;;;;;0.65;0.57;;;;;;;-140.72;100.00;52539.00;5030875;28;20056;-69
2022/04/18 05:38:16;;;;;;;0.35;0.35;;;;;;;-140.72;100.00;52583.63;5030857;28;20054;-71
2022/04/18 05:40:42;;;;;;;0.65;0.43;;;;;;;-140.72;100.00;52500.44;5031017;28;20116;-70
2022/04/18 05:43:08;;;;;;;0.50;0.40;;;;;;;-140.72;100.00;52536.97;5030412;28;20104;-68
2022/04/18 05:45:34;;;;;;;0.55;0.40;;;;;;;-140.72;100.00;52506.53;4992032;28;20039;-69
2022/04/18 05:48:00;;;;;;;0.35;0.30;;;;;;;-140.72;100.00;52490.28;4991370;28;20026;-68
2022/04/18 05:50:25;;;;;;;0.95;0.40;;;;;;;-140.72;100.00;52508.56;4991117;28;20026;-69
2022/04/18 05:52:50;;;;;;;0.30;0.30;;;;;;;-140.72;100.00;52508.56;4991460;28;20042;-70
2022/04/18 05:55:16;;;;;;;0.70;0.52;;;;;;;-140.72;100.00;52500.44;4990614;28;20078;-70
2022/04/18 05:57:42;;;;;;;0.60;0.40;;;;;;;-140.72;100.00;52492.31;4990939;28;20121;-69
2022/04/18 06:00:08;;;;;;;0.75;0.73;;;;;;;-140.72;100.00;52476.09;4990538;28;20437;-69
2022/04/18 06:02:33;;;;;;;0.73;0.55;;;;;;;-140.72;100.00;52478.13;4991194;28;20039;-68
2022/04/18 06:04:59;;;;;;;0.45;0.45;;;;;;;-140.72;100.00;52461.88;4991258;28;20104;-68
2022/04/18 06:07:24;;;;;;;1.40;0.73;;;;;;;-140.72;100.00;52472.03;4990744;28;20491;-69
2022/04/18 06:09:50;;;;;;;0.77;0.43;;;;;;;-140.72;100.00;52480.16;4993177;28;20026;-74
2022/04/18 06:12:20;;;;;;;0.77;0.50;;;;;;;-140.72;100.00;52474.06;5003977;28;20452;-69
2022/04/18 06:14:45;;;;;;;0.57;0.57;;;;;;;-140.72;100.00;52472.03;5004717;28;20535;-71
2022/04/18 06:17:11;;;;;;;0.57;0.57;;;;;;;-140.72;100.00;52496.38;5010355;28;20155;-69
2022/04/18 06:19:36;;;;;;;0.80;0.60;;;;;;;-140.72;100.00;52482.16;5010746;28;20078;-69
2022/04/18 06:22:04;;;;;;;0.75;0.40;;;;;;;-140.72;100.00;52459.84;5010358;28;20029;-69
2022/04/18 06:24:30;;;;;;;0.82;0.63;;;;;;;-140.72;100.00;52476.09;5010287;28;20109;-71
2022/04/18 06:26:55;;;;;;;0.70;0.68;;;;;;;-140.72;100.00;52476.09;5004470;28;20139;-69
2022/04/18 06:29:21;;;;;;;0.88;0.65;;;;;;;-140.72;100.00;52470.00;4999952;28;20030;-69
2022/04/18 06:31:46;;;;;;;0.98;0.75;;;;;;;-140.72;100.00;52478.13;4997369;28;20057;-69
2022/04/18 06:34:12;;;;;;;0.30;0.30;;;;;;;-140.72;100.00;52490.28;4993609;28;20493;-69
2022/04/18 06:36:38;;;;;;;0.82;0.45;;;;;;;-140.72;100.00;52482.16;4994825;28;20022;-69
2022/04/18 06:39:03;;;;;;;1.95;0.75;;;;;;;-140.72;100.00;52455.78;4994410;28;20117;-73
2022/04/18 06:41:29;;;;;;;0.73;0.70;;;;;;;-140.72;100.00;52459.84;4994596;28;20113;-70
2022/04/18 06:43:55;;;;;;;1.00;0.47;;;;;;;-140.72;100.00;52439.56;5003289;28;20049;-69
2022/04/18 06:46:20;;;;;;;0.82;0.63;;;;;;;-140.72;100.00;52492.31;4997533;28;20033;-70
2022/04/18 06:48:45;;;;;;;1.40;0.68;;;;;;;-140.72;100.00;52447.69;4993067;28;20042;-69
2022/04/18 06:51:11;;;;;;;0.57;0.30;;;;;;;-140.72;100.00;52427.38;4990494;28;20137;-69
2022/04/18 06:53:36;;;;;;;3.55;1.20;;;;;;;-140.72;100.00;52433.47;4990261;28;20090;-68
2022/04/18 06:58:46;;;;;;;0.95;0.52;;;;;;;-140.72;100.00;52447.69;4990297;28;20435;-68
2022/04/18 07:01:11;;;;;;;0.68;0.60;;;;;;;-140.72;100.00;52427.38;4989996;28;20022;-70
2022/04/18 07:03:36;;;;;;;1.00;0.50;;;;;;;-140.72;100.00;52407.09;4990107;28;20030;-69
2022/04/18 07:06:02;;;;;;;1.17;0.90;;;;;;;-140.72;100.00;52423.31;4990155;28;20407;-69
2022/04/18 07:08:27;;;;;;;2.63;0.80;;;;;;;-140.72;100.00;52425.34;4989993;28;20023;-71
2022/04/18 07:10:53;;;;;;;1.23;0.75;;;;;;;-140.72;100.00;52427.38;4989710;28;20026;-71
2022/04/18 07:13:18;;;;;;;0.63;0.50;;;;;;;-140.72;100.00;52396.94;4990189;28;20049;-69
2022/04/18 07:15:43;;;;;;;0.50;0.40;;;;;;;-140.72;100.00;52407.09;4989742;28;20391;-70
2022/04/18 07:18:09;;;;;;;0.50;0.40;;;;;;;-140.72;100.00;52417.25;4989561;28;20034;-68
2022/04/18 07:20:34;;;;;;;1.15;1.00;;;;;;;-140.72;100.00;52431.44;5042503;28;20027;-70
2022/04/18 07:23:00;;;;;;;0.73;0.70;;;;;;;-140.72;100.00;52417.25;5083368;28;20015;-73
2022/04/18 07:25:25;;;;;;;1.05;0.70;;;;;;;-140.72;100.00;52396.94;5077587;28;20349;-69
2022/04/18 07:27:51;;;;;;;0.85;0.55;;;;;;;-140.72;100.00;52407.09;5023822;28;20034;-69
2022/04/18 07:30:16;;;;;;;1.23;0.70;;;;;;;-140.72;100.00;52388.84;5008667;28;20489;-68
2022/04/18 07:32:42;;;;;;;0.85;0.60;;;;;;;-140.72;100.00;52396.94;5050637;28;20019;-70
2022/04/18 07:35:09;;;;;;;0.80;0.70;;;;;;;-140.72;100.00;52386.81;5064711;28;20437;-69
2022/04/18 07:37:35;;;;;;;2.47;0.70;;;;;;;-140.72;100.00;52398.97;5063633;28;20287;-70
2022/04/18 07:40:03;;;;;;;1.05;0.85;;;;;;;-140.72;100.00;52382.75;5031109;28;20444;-71
2022/04/18 07:42:29;;;;;;;0.93;0.60;;;;;;;-140.72;100.00;52378.69;5053770;28;20046;-68
2022/04/18 07:44:54;;;;;;;1.55;0.55;;;;;;;-140.72;100.00;52366.50;5039508;28;20053;-72
2022/04/18 07:47:20;;;;;;;0.88;0.70;;;;;;;-140.72;100.00;52362.44;5009302;28;20112;-72
2022/04/18 07:49:45;;;;;;;0.90;0.40;;;;;;;-140.72;100.00;52405.06;5009055;28;20087;-70
2022/04/18 07:52:12;;;;;;;1.13;0.80;;;;;;;-140.72;100.00;52358.41;5008467;28;20096;-70
2022/04/18 07:54:38;;;;;;;1.05;0.95;;;;;;;-140.72;100.00;52362.44;5008858;28;20050;-71
2022/04/18 07:57:04;;;;;;;2.22;0.60;;;;;;;-140.72;100.00;52340.13;5009044;28;20058;-69
2022/04/18 07:59:30;;;;;;;0.95;0.50;;;;;;;-140.72;100.00;52374.63;5008747;28;20048;-70
2022/04/18 08:01:56;;;;;;;7.55;0.82;;;;;;;-140.72;100.00;52364.47;5008890;28;20026;-70
2022/04/18 08:04:21;;;;;;;2.85;0.77;;;;;;;-140.72;100.00;52344.19;4994844;28;20034;-69
2022/04/18 08:06:47;;;;;;;0.90;0.30;;;;;;;-140.72;100.00;52358.41;4989055;28;20030;-71
2022/04/18 08:09:12;;;;;;;0.65;0.45;;;;;;;-140.72;100.00;52327.97;4989183;28;20030;-73
2022/04/18 08:11:40;;;;;;;0.98;0.75;;;;;;;-140.72;100.00;52327.97;4994282;28;20026;-74
2022/04/18 08:14:06;;;;;;;1.65;0.85;;;;;;;-140.72;100.00;52336.06;4991871;28;20410;-69
2022/04/18 08:16:31;;;;;;;1.33;0.60;;;;;;;-140.72;100.00;52293.47;5008939;28;20022;-69
2022/04/18 08:18:57;;;;;;;0.80;0.57;;;;;;;-140.72;100.00;52303.59;5008439;28;20403;-73
2022/04/18 08:21:22;;;;;;;1.02;0.60;;;;;;;-140.72;100.00;52325.94;4994693;28;20035;-69
2022/04/18 08:23:53;;;;;;;1.65;0.70;;;;;;;-140.72;100.00;52281.28;4989171;28;20026;-70
2022/04/18 08:26:21;;;;;;;1.48;0.50;;;;;;;-140.72;100.00;52291.44;4988904;28;20022;-71
2022/04/18 08:28:47;;;;;;;1.23;0.50;;;;;;;-140.72;100.00;52295.50;4989047;28;20034;-70
2022/04/18 08:31:12;;;;;;;1.48;0.70;;;;;;;-140.72;100.00;52281.28;4988937;28;20018;-71
2022/04/18 08:33:38;;;;;;;0.98;0.52;;;;;;;-140.72;100.00;52226.50;4989097;28;20504;-69
2022/04/18 08:36:04;;;;;;;0.70;0.45;;;;;;;-140.72;100.00;52246.78;4988945;28;20032;-70
2022/04/18 08:38:29;;;;;;;0.77;0.55;;;;;;;-140.72;100.00;52269.13;4989196;28;20065;-72
2022/04/18 08:40:56;;;;;;;0.60;0.30;;;;;;;-140.72;100.00;52208.25;4989162;28;20457;-72
2022/04/18 08:43:22;;;;;;;2.30;0.88;;;;;;;-140.72;100.00;52234.63;4991568;28;20058;-69
2022/04/18 08:45:47;;;;;;;1.77;0.60;;;;;;;-140.72;100.00;52228.53;5028245;28;20108;-70
2022/04/18 08:53:42;;;;;;;1.13;0.70;;;;;;;-140.72;100.00;52265.06;5028542;28;20086;-69
2022/04/18 08:56:10;;;;;;;0.75;0.63;;;;;;;-140.72;100.00;52214.34;5028031;28;20049;-69
2022/04/18 08:58:36;;;;;;;0.63;0.50;;;;;;;-140.72;98.59;52198.09;5027949;28;20033;-69
2022/04/18 09:01:03;;;;;;;1.92;1.10;;;;;;;-140.72;95.96;52179.84;5027275;28;20033;-71
2022/04/18 09:03:28;;;;;;;1.48;1.10;;;;;;;-140.72;91.64;52131.16;5027607;28;20279;-70
2022/04/18 09:06:10;;;;;;;1.85;0.80;;;;;;;-140.72;89.48;52141.28;5028032;28;20053;-69
2022/04/18 09:08:47;;;;;;;0.90;0.60;;;;;;;-140.72;86.17;52123.03;5028269;28;20049;-71
2022/04/18 09:11:27;;;;;;;0.88;0.43;;;;;;;-140.72;84.89;52104.75;5027742;28;20095;-72
2022/04/18 09:14:06;;;;;;;1.27;0.68;;;;;;;-140.72;85.07;52100.72;5027665;28;20258;-69
2022/04/18 09:16:32;;;;;;;0.93;0.68;;;;;;;-140.72;77.98;52106.78;5028017;28;20026;-68
2022/04/18 09:19:12;;;;;;;2.03;1.02;;;;;;;-140.72;78.88;52066.22;5028001;28;20048;-69
2022/04/18 09:21:44;;;;;;;2.55;0.70;;;;;;;-140.72;79.61;52098.69;5027958;28;20370;-70
2022/04/18 09:24:32;;;;;;;0.90;0.65;;;;;;;-140.72;79.38;52039.84;5027363;28;20030;-69
2022/04/18 09:27:04;;;;;;;1.15;0.73;;;;;;;-140.72;76.34;52098.69;5027734;28;20037;-73
2022/04/18 09:29:38;;;;;;;0.30;0.30;;;;;;;-140.72;73.55;52082.44;5027830;28;20025;-70
2022/04/18 09:32:07;;;;;;;0.60;0.47;;;;;;;-140.72;71.23;52049.97;5027675;28;20483;-68
2022/04/18 09:34:32;;;;;;;1.43;0.73;;;;;;;-140.72;68.75;52037.81;5027585;28;20071;-71
2022/04/18 09:37:14;;;;;;;0.93;0.40;;;;;;;-140.72;72.62;52025.63;5027189;28;20284;-70
2022/04/18 09:39:58;;;;;;;1.08;0.68;;;;;;;-140.72;67.63;52062.16;5027870;28;20026;-69
2022/04/18 09:42:27;;;;;;;1.58;0.63;;;;;;;-140.72;61.33;52007.38;5027708;28;20052;-71
2022/04/18 09:44:53;;;;;;;1.13;0.50;;;;;;;-140.72;62.48;51985.06;5027962;28;20037;-72
2022/04/18 09:47:20;;;;;;;1.38;0.75;;;;;;;-140.72;60.42;52009.41;5028029;28;20372;-71
2022/04/18 09:49:46;;;;;;;0.93;0.52;;;;;;;-140.72;63.97;51989.13;5028131;28;20029;-71
2022/04/18 09:52:17;;;;;;;1.02;0.52;;;;;;;-140.72;56.33;51924.19;5027407;28;20025;-69
2022/04/18 09:54:56;;;;;;;0.68;0.38;;;;;;;-140.72;60.51;51989.13;5027328;28;20112;-68
2022/04/18 09:57:28;;;;;;;2.33;0.82;;;;;;;-140.72;60.19;51995.19;5027254;28;20033;-71
2022/04/18 09:59:59;;;;;;;0.88;0.57;;;;;;;-140.72;59.68;51985.06;5027110;28;20072;-69
2022/04/18 10:02:25;;;;;;;0.80;0.47;;;;;;;-140.72;61.66;52009.41;5027607;28;20033;-70
2022/04/18 10:04:52;;;;;;;0.93;0.50;;;;;;;-140.72;62.04;51989.13;5027332;28;20026;-70
2022/04/18 10:07:34;;;;;;;0.70;0.60;;;;;;;-140.72;64.19;51997.22;5027368;28;20048;-69
2022/04/18 10:10:00;;;;;;;1.45;0.40;;;;;;;-140.72;61.82;51993.19;5027092;28;20026;-69
2022/04/18 10:12:25;;;;;;;1.35;0.52;;;;;;;-140.72;62.97;52019.56;5028946;28;20044;-69
2022/04/18 10:14:51;;;;;;;1.00;0.50;;;;;;;-140.72;62.79;51966.81;5030624;28;20030;-69
2022/04/18 10:17:17;;;;;;;1.33;0.82;;;;;;;-140.72;58.55;51960.72;5030352;28;20033;-69
2022/04/18 10:20:23;;;;;;;1.02;0.57;;;;;;;-140.72;58.02;51954.63;5030861;28;20022;-69
2022/04/18 10:23:10;;;;;;;1.10;0.55;;;;;;;-140.72;57.13;51964.78;5030312;28;20022;-71
2022/04/18 10:25:57;;;;;;;1.27;0.65;;;;;;;-140.72;57.95;51932.31;5030542;28;20034;-70
2022/04/18 10:28:42;;;;;;;1.13;0.60;;;;;;;-140.72;56.77;51897.81;5030098;28;20032;-71
2022/04/18 10:31:18;;;;;;;1.52;0.75;;;;;;;-140.72;59.10;51899.84;5030179;28;20438;-72
2022/04/18 10:33:44;;;;;;;1.25;0.60;;;;;;;-140.72;48.78;51873.47;5030355;28;20478;-69
2022/04/18 10:36:10;;;;;;;0.57;0.40;;;;;;;-140.72;45.86;51859.28;5030147;28;20053;-70
2022/04/18 10:38:37;;;;;;;0.73;0.52;;;;;;;-140.72;48.25;51808.53;5030486;28;20061;-69
2022/04/18 10:41:39;;;;;;;2.05;0.57;;;;;;;-140.72;43.31;51841.00;5030081;28;20469;-69
2022/04/18 10:44:08;;;;;;;0.60;0.40;;;;;;;-140.72;42.84;51853.19;5015953;28;20026;-68
2022/04/18 10:46:38;;;;;;;1.48;0.80;;;;;;;-140.72;44.94;51847.09;4990943;28;20392;-68
2022/04/18 10:49:12;;;;;;;0.88;0.30;;;;;;;-140.72;46.97;51767.97;4990774;28;20050;-68
2022/04/18 10:51:39;;;;;;;0.35;0.20;;;;;;;-140.72;38.96;51788.25;4990834;28;20027;-70
2022/04/18 10:54:06;;;;;;;0.60;0.30;;;;;;;-140.72;40.01;51727.41;4990554;28;20045;-68
2022/04/18 10:57:11;;;;;;;0.77;0.47;;;;;;;-140.72;40.16;51763.91;4990462;28;20030;-69
2022/04/18 10:59:45;;;;;;;0.35;0.17;;;;;;;-140.72;38.04;51774.06;5000268;28;20141;-68
2022/04/18 11:02:39;;;;;;;1.15;0.50;;;;;;;-140.72;39.20;51808.53;4970926;28;20045;-72
2022/04/18 11:05:06;;;;;;;1.85;0.60;;;;;;;-140.72;40.09;51786.22;4971109;28;20030;-69
2022/04/18 11:07:38;;;;;;;3.33;0.57;;;;;;;-140.72;39.30;51763.91;4971025;28;20069;-70
2022/04/18 11:10:20;;;;;;;1.70;0.57;;;;;;;-140.72;41.76;51820.72;4970807;28;20122;-68
2022/04/18 11:12:45;;;;;;;1.02;0.40;;;;;;;-140.72;44.99;51836.94;4971032;28;20538;-68
2022/04/18 11:15:11;;;;;;;0.80;0.47;;;;;;;-140.72;42.14;51749.72;4970906;28;20121;-73
2022/04/18 11:17:41;;;;;;;0.88;0.30;;;;;;;-140.72;46.95;51719.28;4971180;28;20026;-74
2022/04/18 11:20:37;;;;;;;1.00;0.60;;;;;;;-140.72;41.51;51717.25;4970669;28;20030;-68
2022/04/18 11:23:28;;;;;;;0.70;0.40;;;;;;;-140.72;37.94;51603.63;4970037;28;20057;-69
2022/04/18 11:25:54;;;;;;;1.40;0.77;;;;;;;-140.72;38.49;51623.94;4970775;28;20525;-68
2022/04/18 11:28:20;;;;;;;0.95;0.60;;;;;;;-140.72;35.66;51646.25;4970936;28;20035;-67
2022/04/18 11:30:46;;;;;;;1.15;0.68;;;;;;;-140.72;37.80;51619.88;4970920;28;20314;-69
2022/04/18 11:33:11;;;;;;;2.72;0.40;;;;;;;-140.72;32.66;51634.06;4970517;28;20430;-71